createdAt,value
2018-03-16T00:01:02.040Z,73.55
2018-03-16T00:03:29.548Z,73.53
2018-03-16T00:05:57.077Z,73.94
2018-03-16T00:08:24.587Z,73.74
2018-03-16T00:10:52.557Z,73.74
2018-03-16T00:13:20.046Z,73.63
2018-03-16T00:15:47.548Z,73.33
2018-03-16T00:18:15.445Z,73.46
2018-03-16T00:20:42.951Z,73.23
2018-03-16T00:23:10.482Z,73.01
2018-03-16T00:25:37.993Z,72.93
2018-03-16T00:28:05.524Z,72.88
2018-03-16T00:30:33.018Z,73.07
2018-03-16T00:33:00.566Z,73.33
2018-03-16T00:35:28.076Z,73.08
2018-03-16T00:37:55.928Z,73.28
2018-03-16T00:40:23.443Z,73.59
2018-03-16T00:42:51.249Z,73.45
2018-03-16T00:45:18.755Z,73.41
2018-03-16T00:47:46.572Z,73.38
2018-03-16T00:50:14.083Z,73.45
2018-03-16T00:52:41.895Z,73.50
2018-03-16T00:55:09.424Z,73.85
2018-03-16T00:57:36.963Z,73.55
2018-03-16T01:00:04.520Z,73.48
2018-03-16T01:02:32.058Z,73.52
2018-03-16T01:04:59.557Z,73.53
2018-03-16T01:07:27.104Z,73.46
2018-03-16T01:09:54.928Z,73.28
2018-03-16T01:12:22.521Z,73.31
2018-03-16T01:14:50.040Z,73.20
2018-03-16T01:17:17.631Z,73.05
2018-03-16T01:19:45.172Z,72.91
2018-03-16T01:22:12.751Z,72.96
2018-03-16T01:24:40.316Z,72.72
2018-03-16T01:27:07.855Z,72.48
2018-03-16T01:29:35.411Z,72.48
2018-03-16T01:32:03.179Z,72.55
2018-03-16T01:34:30.687Z,72.45
2018-03-16T01:36:58.509Z,72.41
2018-03-16T01:39:26.027Z,72.53
2018-03-16T01:41:54.322Z,72.10
2018-03-16T01:44:21.810Z,71.89
2018-03-16T01:46:49.403Z,71.70
2018-03-16T01:49:16.999Z,71.24
2018-03-16T01:51:44.761Z,71.16
2018-03-16T01:54:12.295Z,71.25
2018-03-16T01:56:39.807Z,71.34
2018-03-16T01:59:07.323Z,71.37
2018-03-16T02:01:34.823Z,71.27
2018-03-16T02:04:02.356Z,71.12
2018-03-16T02:06:29.889Z,71.35
2018-03-16T02:08:57.412Z,71.26
2018-03-16T02:11:24.927Z,70.95
2018-03-16T02:13:52.836Z,70.74
2018-03-16T02:16:20.383Z,70.47
2018-03-16T02:18:48.200Z,70.34
2018-03-16T02:21:15.702Z,70.18
2018-03-16T02:23:43.244Z,70.27
2018-03-16T02:26:10.811Z,69.93
2018-03-16T02:28:38.330Z,69.70
2018-03-16T02:31:06.033Z,69.59
2018-03-16T02:33:33.585Z,69.38
2018-03-16T02:36:01.070Z,69.42
2018-03-16T02:38:28.653Z,69.61
2018-03-16T02:40:56.424Z,69.62
2018-03-16T02:43:23.926Z,69.52
2018-03-16T02:45:51.458Z,69.57
2018-03-16T02:48:19.002Z,69.47
2018-03-16T02:50:46.519Z,69.39
2018-03-16T02:53:14.167Z,69.48
2018-03-16T02:55:41.681Z,69.37
2018-03-16T02:58:09.565Z,69.21
2018-03-16T03:00:37.104Z,69.53
2018-03-16T03:03:04.624Z,69.09
2018-03-16T03:05:32.137Z,69.21
2018-03-16T03:07:59.658Z,68.80
2018-03-16T03:10:27.157Z,68.73
2018-03-16T03:12:54.674Z,68.68
2018-03-16T03:15:22.210Z,68.59
2018-03-16T03:17:49.731Z,68.88
2018-03-16T03:20:17.224Z,68.92
2018-03-16T03:22:44.764Z,68.68
2018-03-16T03:25:12.276Z,68.57
2018-03-16T03:27:39.972Z,68.51
2018-03-16T03:30:07.532Z,68.51
2018-03-16T03:32:35.072Z,68.26
2018-03-16T03:35:02.586Z,68.36
2018-03-16T03:37:30.166Z,68.32
2018-03-16T03:39:58.004Z,68.24
2018-03-16T03:42:25.505Z,68.42
2018-03-16T03:44:53.277Z,68.77
2018-03-16T03:47:20.788Z,68.43
2018-03-16T03:49:48.527Z,68.06
2018-03-16T03:52:16.055Z,68.18
2018-03-16T03:54:43.583Z,68.51
2018-03-16T03:57:11.111Z,68.63
2018-03-16T03:59:38.647Z,68.75
2018-03-16T04:02:06.452Z,68.81
2018-03-16T04:04:33.968Z,69.11
2018-03-16T04:07:01.519Z,68.92
2018-03-16T04:09:29.053Z,69.21
2018-03-16T04:11:56.590Z,68.97
2018-03-16T04:14:24.219Z,69.01
2018-03-16T04:16:51.745Z,68.91
2018-03-16T04:19:19.308Z,69.06
2018-03-16T04:21:46.858Z,68.81
2018-03-16T04:24:14.388Z,69.11
2018-03-16T04:26:42.254Z,69.11
2018-03-16T04:29:09.797Z,69.22
2018-03-16T04:31:37.579Z,69.20
2018-03-16T04:34:05.110Z,69.22
2018-03-16T04:36:32.669Z,69.13
2018-03-16T04:39:00.188Z,69.17
2018-03-16T04:41:27.698Z,69.16
2018-03-16T04:43:55.244Z,69.17
2018-03-16T04:46:22.907Z,69.37
2018-03-16T04:48:50.436Z,69.65
2018-03-16T04:51:17.985Z,69.40
2018-03-16T04:53:45.518Z,69.49
2018-03-16T04:56:13.075Z,69.30
2018-03-16T04:58:40.599Z,69.08
2018-03-16T05:01:08.108Z,69.23
2018-03-16T05:03:35.599Z,69.31
2018-03-16T05:06:03.158Z,69.64
2018-03-16T05:08:30.674Z,69.67
2018-03-16T05:10:58.179Z,69.26
2018-03-16T05:13:25.725Z,69.37
2018-03-16T05:15:53.353Z,69.13
2018-03-16T05:18:21.123Z,69.20
2018-03-16T05:20:48.675Z,69.23
2018-03-16T05:23:16.190Z,69.11
2018-03-16T05:25:43.700Z,69.04
2018-03-16T05:28:11.234Z,69.15
2018-03-16T05:30:38.827Z,69.03
2018-03-16T05:33:06.393Z,69.04
2018-03-16T05:35:33.918Z,69.36
2018-03-16T05:38:01.424Z,69.20
2018-03-16T05:40:28.932Z,69.24
2018-03-16T05:42:56.484Z,69.02
2018-03-16T05:45:24.003Z,69.26
2018-03-16T05:47:52.068Z,68.89
2018-03-16T05:50:19.624Z,69.02
2018-03-16T05:52:47.192Z,69.33
2018-03-16T05:55:14.713Z,69.14
2018-03-16T05:57:42.276Z,69.13
2018-03-16T06:00:09.833Z,69.05
2018-03-16T06:02:37.598Z,68.99
2018-03-16T06:05:05.162Z,68.82
2018-03-16T06:07:32.691Z,68.78
2018-03-16T06:10:00.214Z,68.62
2018-03-16T06:12:27.782Z,68.47
2018-03-16T06:14:55.302Z,68.48
2018-03-16T06:17:22.896Z,68.54
2018-03-16T06:19:50.490Z,68.16
2018-03-16T06:22:18.039Z,68.14
2018-03-16T06:24:45.881Z,67.83
2018-03-16T06:27:13.551Z,67.97
2018-03-16T06:29:41.083Z,67.58
2018-03-16T06:32:08.932Z,67.55
2018-03-16T06:34:36.490Z,67.74
2018-03-16T06:37:04.008Z,67.74
2018-03-16T06:39:31.502Z,67.91
2018-03-16T06:41:59.038Z,67.54
2018-03-16T06:44:26.560Z,67.52
2018-03-16T06:46:54.387Z,67.60
2018-03-16T06:49:22.785Z,67.24
2018-03-16T06:51:51.637Z,67.05
2018-03-16T06:54:19.156Z,67.11
2018-03-16T06:56:46.790Z,66.62
2018-03-16T06:59:14.306Z,66.67
2018-03-16T07:01:41.832Z,66.87
2018-03-16T07:04:09.538Z,66.86
2018-03-16T07:06:37.061Z,67.26
2018-03-16T07:09:04.610Z,67.31
2018-03-16T07:11:32.498Z,67.47
2018-03-16T07:14:00.231Z,67.16
2018-03-16T07:16:27.779Z,67.73
2018-03-16T07:18:55.351Z,67.70
2018-03-16T07:21:22.889Z,67.29
2018-03-16T07:23:50.423Z,67.35
2018-03-16T07:26:18.075Z,67.45
2018-03-16T07:28:45.596Z,67.19
2018-03-16T07:31:13.125Z,66.88
2018-03-16T07:33:40.693Z,66.41
2018-03-16T07:36:08.661Z,66.27
2018-03-16T07:38:36.194Z,66.24
2018-03-16T07:41:04.948Z,65.72
2018-03-16T07:43:32.699Z,65.80
2018-03-16T07:46:00.239Z,65.35
2018-03-16T07:48:27.789Z,65.08
2018-03-16T07:50:55.388Z,65.33
2018-03-16T07:53:22.916Z,65.29
2018-03-16T07:55:50.536Z,65.16
2018-03-16T07:58:18.050Z,65.12
2018-03-16T08:00:45.589Z,64.54
2018-03-16T08:03:13.153Z,65.05
2018-03-16T08:05:40.681Z,65.03
2018-03-16T08:08:08.187Z,64.90
2018-03-16T08:10:36.013Z,64.77
2018-03-16T08:13:03.529Z,64.98
2018-03-16T08:15:31.338Z,64.60
2018-03-16T08:17:58.899Z,64.14
2018-03-16T08:20:26.417Z,64.08
2018-03-16T08:22:53.936Z,64.07
2018-03-16T08:25:21.463Z,63.89
2018-03-16T08:27:49.020Z,63.93
2018-03-16T08:30:16.525Z,64.00
2018-03-16T08:32:44.304Z,64.09
2018-03-16T08:35:11.862Z,63.99
2018-03-16T08:37:39.358Z,63.97
2018-03-16T08:40:06.890Z,63.75
2018-03-16T08:42:34.430Z,63.84
2018-03-16T08:45:01.944Z,63.75
2018-03-16T08:47:29.536Z,63.86
2018-03-16T08:49:57.100Z,63.88
2018-03-16T08:52:24.839Z,63.85
2018-03-16T08:54:52.381Z,63.32
2018-03-16T08:57:19.905Z,63.75
2018-03-16T08:59:47.554Z,64.10
2018-03-16T09:02:15.093Z,63.83
2018-03-16T09:04:42.616Z,63.91
2018-03-16T09:07:10.144Z,64.01
2018-03-16T09:09:37.672Z,63.85
2018-03-16T09:12:05.227Z,63.57
2018-03-16T09:14:32.806Z,63.72
2018-03-16T09:17:00.398Z,64.20
2018-03-16T09:19:27.912Z,63.90
2018-03-16T09:21:55.438Z,63.90
2018-03-16T09:24:22.979Z,63.99
2018-03-16T09:26:50.514Z,63.99
2018-03-16T09:29:18.173Z,63.97
2018-03-16T09:31:45.704Z,64.15
2018-03-16T09:34:13.234Z,64.17
2018-03-16T09:36:40.774Z,63.77
2018-03-16T09:39:08.998Z,63.61
2018-03-16T09:41:36.779Z,64.12
2018-03-16T09:44:04.361Z,64.27
2018-03-16T09:46:35.801Z,64.39
2018-03-16T09:49:06.594Z,64.71
2018-03-16T09:51:35.230Z,65.40
2018-03-16T09:54:04.020Z,66.08
2018-03-16T09:56:34.764Z,65.96
2018-03-16T09:59:06.238Z,65.78
2018-03-16T10:01:34.343Z,66.16
2018-03-16T10:04:01.911Z,65.83
2018-03-16T10:06:36.166Z,65.37
2018-03-16T10:09:05.839Z,65.17
2018-03-16T10:11:35.168Z,65.21
2018-03-16T10:14:07.060Z,65.16
2018-03-16T10:16:35.285Z,64.86
2018-03-16T10:19:05.810Z,64.82
2018-03-16T10:21:35.854Z,64.62
2018-03-16T10:24:03.608Z,64.21
2018-03-16T10:26:31.154Z,64.24
2018-03-16T10:29:00.433Z,64.24
2018-03-16T10:31:27.979Z,64.11
2018-03-16T10:33:55.846Z,64.01
2018-03-16T10:36:23.433Z,64.21
2018-03-16T10:38:51.854Z,64.58
2018-03-16T10:41:19.499Z,64.72
2018-03-16T10:43:47.081Z,64.97
2018-03-16T10:46:14.593Z,65.38
2018-03-16T10:48:42.770Z,66.16
2018-03-16T10:51:10.412Z,66.73
2018-03-16T10:53:37.917Z,65.65
2018-03-16T10:56:05.442Z,65.33
2018-03-16T10:58:33.003Z,65.30
2018-03-16T11:01:00.558Z,64.64
2018-03-16T11:03:33.857Z,64.47
2018-03-16T11:06:02.031Z,64.15
2018-03-16T11:08:30.415Z,64.38
2018-03-16T11:10:57.974Z,63.82
2018-03-16T11:13:25.502Z,64.00
2018-03-16T11:15:53.045Z,64.13
2018-03-16T11:18:20.613Z,64.47
2018-03-16T11:20:48.235Z,64.87
2018-03-16T11:23:15.766Z,64.46
2018-03-16T11:25:43.357Z,64.18
2018-03-16T11:28:10.915Z,64.66
2018-03-16T11:30:38.436Z,64.96
2018-03-16T11:33:05.979Z,64.94
2018-03-16T11:35:33.783Z,64.94
2018-03-16T11:38:01.531Z,65.92
2018-03-16T11:40:29.144Z,66.56
2018-03-16T11:42:56.706Z,67.70
2018-03-16T11:45:24.258Z,67.99
2018-03-16T11:47:52.065Z,67.89
2018-03-16T11:50:19.646Z,67.64
2018-03-16T11:52:47.487Z,68.11
2018-03-16T11:55:15.039Z,67.86
2018-03-16T11:57:42.571Z,67.70
2018-03-16T12:00:10.101Z,67.64
2018-03-16T12:02:38.265Z,67.70
2018-03-16T12:05:05.791Z,67.86
2018-03-16T12:07:33.654Z,67.69
2018-03-16T12:10:01.353Z,67.92
2018-03-16T12:12:28.882Z,68.04
2018-03-16T12:14:56.419Z,68.40
2018-03-16T12:17:24.013Z,68.46
2018-03-16T12:19:51.613Z,69.07
2018-03-16T12:22:19.145Z,69.28
2018-03-16T12:24:46.714Z,68.99
2018-03-16T12:27:14.337Z,68.75
2018-03-16T12:29:41.857Z,68.67
2018-03-16T12:32:09.387Z,68.80
2018-03-16T12:34:36.903Z,69.73
2018-03-16T12:37:04.447Z,69.89
2018-03-16T12:39:31.995Z,70.28
2018-03-16T12:41:59.519Z,70.28
2018-03-16T12:44:27.276Z,70.10
2018-03-16T12:46:54.816Z,70.48
2018-03-16T12:49:22.339Z,70.50
2018-03-16T12:51:50.272Z,70.60
2018-03-16T12:54:18.205Z,70.67
2018-03-16T12:56:45.719Z,70.57
2018-03-16T12:59:13.263Z,70.59
2018-03-16T13:01:40.922Z,70.35
2018-03-16T13:04:08.727Z,70.39
2018-03-16T13:06:36.654Z,69.59
2018-03-16T13:09:04.885Z,69.40
2018-03-16T13:11:32.474Z,70.45
2018-03-16T13:13:59.999Z,70.70
2018-03-16T13:16:27.551Z,70.67
2018-03-16T13:18:55.110Z,70.37
2018-03-16T13:21:22.752Z,70.19
2018-03-16T13:23:50.419Z,70.40
2018-03-16T13:26:18.001Z,70.29
2018-03-16T13:28:45.595Z,70.44
2018-03-16T13:31:13.520Z,70.36
2018-03-16T13:33:41.066Z,69.33
2018-03-16T13:36:08.643Z,69.94
2018-03-16T13:38:36.200Z,69.29
2018-03-16T13:41:03.745Z,68.96
2018-03-16T13:43:31.287Z,69.49
2018-03-16T13:45:58.866Z,68.06
2018-03-16T13:48:26.416Z,68.63
2018-03-16T13:50:53.969Z,69.28
2018-03-16T13:53:21.531Z,69.37
2018-03-16T13:55:49.061Z,69.77
2018-03-16T13:58:16.576Z,69.77
2018-03-16T14:00:44.157Z,69.47
2018-03-16T14:03:11.744Z,70.18
2018-03-16T14:05:39.256Z,69.50
2018-03-16T14:08:06.886Z,69.92
2018-03-16T14:10:34.868Z,70.43
2018-03-16T14:13:02.382Z,69.74
2018-03-16T14:15:29.944Z,70.60
2018-03-16T14:17:57.486Z,71.04
2018-03-16T14:20:25.061Z,70.58
2018-03-16T14:22:52.636Z,70.56
2018-03-16T14:25:20.210Z,71.88
2018-03-16T14:27:47.776Z,72.31
2018-03-16T14:30:15.357Z,72.30
2018-03-16T14:32:42.901Z,72.12
2018-03-16T14:35:10.489Z,71.90
2018-03-16T14:37:38.064Z,72.07
2018-03-16T14:40:05.604Z,71.72
2018-03-16T14:42:33.233Z,71.74
2018-03-16T14:45:00.814Z,70.79
2018-03-16T14:47:28.326Z,71.83
2018-03-16T14:49:55.886Z,71.27
2018-03-16T14:52:23.496Z,71.62
2018-03-16T14:54:50.989Z,71.17
2018-03-16T14:57:18.508Z,71.12
2018-03-16T14:59:46.043Z,71.37
2018-03-16T15:02:13.562Z,71.10
2018-03-16T15:04:41.137Z,71.63
2018-03-16T15:07:08.686Z,71.36
2018-03-16T15:09:36.254Z,70.75
2018-03-16T15:12:03.796Z,71.13
2018-03-16T15:14:31.331Z,70.82
2018-03-16T15:16:58.864Z,70.61
2018-03-16T15:19:26.443Z,70.62
2018-03-16T15:21:54.089Z,70.46
2018-03-16T15:24:21.607Z,69.82
2018-03-16T15:26:49.176Z,69.62
2018-03-16T15:29:17.297Z,69.11
2018-03-16T15:31:44.807Z,69.55
2018-03-16T15:34:12.429Z,68.55
2018-03-16T15:36:41.140Z,68.83
2018-03-16T15:39:08.993Z,67.55
2018-03-16T15:44:10.691Z,67.65
2018-03-16T15:46:38.542Z,66.99
2018-03-16T15:49:06.080Z,66.01
2018-03-16T15:51:33.671Z,65.82
2018-03-16T15:54:02.168Z,65.69
2018-03-16T15:56:29.687Z,64.96
2018-03-16T15:58:57.379Z,65.41
2018-03-16T16:01:24.940Z,63.87
2018-03-16T16:03:52.530Z,63.90
2018-03-16T16:06:20.137Z,63.46
2018-03-16T16:08:47.760Z,63.56
2018-03-16T16:11:15.267Z,63.01
2018-03-16T16:13:42.833Z,62.74
2018-03-16T16:16:10.672Z,62.95
2018-03-16T16:18:38.255Z,62.55
2018-03-16T16:21:05.863Z,61.94
2018-03-16T16:23:33.696Z,62.94
2018-03-16T16:26:01.222Z,62.17
2018-03-16T16:28:28.843Z,61.96
2018-03-16T16:30:56.383Z,63.04
2018-03-16T16:33:23.895Z,61.65
2018-03-16T16:35:51.423Z,61.92
2018-03-16T16:38:18.991Z,61.88
2018-03-16T16:40:46.560Z,62.32
2018-03-16T16:43:14.122Z,62.76
2018-03-16T16:45:41.672Z,62.99
2018-03-16T16:48:09.190Z,62.72
2018-03-16T16:50:36.733Z,63.96
2018-03-16T16:53:04.274Z,63.39
2018-03-16T16:55:31.901Z,63.56
2018-03-16T16:57:59.437Z,63.33
2018-03-16T17:00:26.965Z,63.04
2018-03-16T17:02:54.488Z,62.96
2018-03-16T17:05:22.038Z,63.40
2018-03-16T17:07:49.559Z,62.99
2018-03-16T17:10:17.082Z,63.22
2018-03-16T17:12:45.164Z,63.77
2018-03-16T17:15:12.681Z,62.96
2018-03-16T17:17:40.233Z,62.31
2018-03-16T17:20:07.896Z,62.42
2018-03-16T17:22:35.430Z,62.77
2018-03-16T17:25:03.000Z,63.26
2018-03-16T17:27:32.020Z,62.55
2018-03-16T17:29:59.555Z,62.45
2018-03-16T17:32:27.108Z,62.45
2018-03-16T17:34:54.663Z,62.48
2018-03-16T17:37:22.468Z,62.25
2018-03-16T17:39:50.000Z,61.85
2018-03-16T17:42:17.563Z,61.50
2018-03-16T17:44:45.103Z,62.07
2018-03-16T17:47:12.633Z,61.75
2018-03-16T17:49:40.476Z,61.43
2018-03-16T17:52:08.341Z,62.38
2018-03-16T17:54:36.113Z,61.86
2018-03-16T17:57:03.664Z,62.22
2018-03-16T17:59:31.203Z,61.84
2018-03-16T18:01:59.098Z,63.15
2018-03-16T18:04:26.700Z,62.47
2018-03-16T18:06:54.214Z,61.43
2018-03-16T18:09:21.738Z,61.97
2018-03-16T18:11:49.455Z,61.69
2018-03-16T18:14:17.269Z,61.06
2018-03-16T18:16:44.811Z,61.83
2018-03-16T18:19:12.403Z,61.59
2018-03-16T18:21:39.922Z,61.72
2018-03-16T18:24:07.441Z,61.98
2018-03-16T18:26:34.968Z,61.47
2018-03-16T18:29:02.763Z,61.92
2018-03-16T18:31:30.291Z,61.20
2018-03-16T18:33:57.867Z,61.88
2018-03-16T18:36:25.395Z,60.66
2018-03-16T18:38:52.937Z,60.44
2018-03-16T18:41:20.521Z,60.74
2018-03-16T18:43:48.058Z,59.76
2018-03-16T18:46:15.605Z,60.47
2018-03-16T18:48:43.152Z,61.20
2018-03-16T18:51:10.646Z,59.93
2018-03-16T18:53:38.198Z,59.66
2018-03-16T18:56:05.748Z,60.16
2018-03-16T18:58:33.260Z,59.99
2018-03-16T19:01:00.803Z,60.88
2018-03-16T19:03:28.358Z,61.29
2018-03-16T19:05:55.890Z,62.86
2018-03-16T19:08:23.424Z,63.14
2018-03-16T19:10:51.247Z,63.49
2018-03-16T19:13:18.878Z,63.74
2018-03-16T19:15:46.393Z,63.85
2018-03-16T19:18:13.958Z,63.59
2018-03-16T19:20:41.483Z,63.46
2018-03-16T19:23:08.992Z,63.04
2018-03-16T19:25:36.539Z,62.97
2018-03-16T19:28:04.106Z,61.90
2018-03-16T19:30:31.657Z,61.68
2018-03-16T19:32:59.261Z,61.21
2018-03-16T19:35:26.985Z,61.97
2018-03-16T19:37:54.566Z,60.35
2018-03-16T19:40:22.125Z,60.20
2018-03-16T19:42:49.639Z,60.19
2018-03-16T19:45:17.149Z,60.18
2018-03-16T19:47:44.809Z,59.25
2018-03-16T19:50:12.333Z,59.54
2018-03-16T19:52:39.838Z,58.18
2018-03-16T19:55:07.385Z,58.71
2018-03-16T19:57:35.164Z,57.43
2018-03-16T20:00:02.711Z,56.97
2018-03-16T20:02:30.342Z,57.92
2018-03-16T20:04:57.865Z,57.15
2018-03-16T20:07:25.391Z,57.08
2018-03-16T20:09:52.962Z,56.19
2018-03-16T20:12:20.486Z,56.15
2018-03-16T20:14:48.239Z,55.74
2018-03-16T20:17:15.856Z,56.09
2018-03-16T20:19:44.045Z,55.97
2018-03-16T20:22:11.826Z,55.95
2018-03-16T20:24:39.357Z,55.63
2018-03-16T20:27:06.885Z,55.10
2018-03-16T20:29:34.412Z,55.25
2018-03-16T20:32:02.750Z,55.15
2018-03-16T20:34:30.273Z,54.13
2018-03-16T20:36:58.998Z,54.48
2018-03-16T20:39:26.645Z,54.38
2018-03-16T20:41:54.404Z,54.29
2018-03-16T20:44:22.820Z,54.30
2018-03-16T20:46:51.233Z,53.81
2018-03-16T20:49:19.059Z,53.03
2018-03-16T20:51:46.925Z,53.20
2018-03-16T20:54:14.527Z,53.47
2018-03-16T20:56:42.403Z,53.58
2018-03-16T20:59:10.152Z,53.05
2018-03-16T21:01:38.099Z,53.57
2018-03-16T21:04:05.636Z,53.61
2018-03-16T21:06:33.162Z,53.26
2018-03-16T21:09:00.726Z,53.23
2018-03-16T21:11:28.360Z,53.18
2018-03-16T21:13:56.054Z,53.21
2018-03-16T21:16:23.656Z,52.78
2018-03-16T21:18:51.195Z,52.56
2018-03-16T21:21:18.980Z,52.78
2018-03-16T21:23:46.571Z,52.08
2018-03-16T21:26:14.211Z,52.44
2018-03-16T21:28:41.716Z,52.38
2018-03-16T21:31:09.294Z,52.70
2018-03-16T21:33:36.812Z,52.41
2018-03-16T21:36:04.657Z,52.22
2018-03-16T21:38:32.343Z,52.23
2018-03-16T21:40:59.873Z,51.87
2018-03-16T21:43:27.675Z,52.09
2018-03-16T21:45:55.328Z,51.43
2018-03-16T21:48:22.964Z,52.28
2018-03-16T21:50:50.485Z,52.24
2018-03-16T21:53:18.061Z,51.89
2018-03-16T21:55:45.635Z,51.71
2018-03-16T21:58:13.168Z,52.03
2018-03-16T22:00:40.707Z,51.29
2018-03-16T22:03:08.220Z,51.03
2018-03-16T22:05:35.738Z,50.62
2018-03-16T22:08:03.323Z,50.62
2018-03-16T22:10:30.915Z,50.45
2018-03-16T22:12:58.476Z,50.66
2018-03-16T22:15:26.024Z,50.34
2018-03-16T22:17:53.594Z,50.54
2018-03-16T22:20:21.119Z,50.74
2018-03-16T22:22:48.677Z,50.93
2018-03-16T22:25:16.493Z,51.00
2018-03-16T22:27:44.021Z,50.62
2018-03-16T22:30:11.590Z,50.58
2018-03-16T22:32:39.117Z,50.67
2018-03-16T22:35:06.622Z,50.30
2018-03-16T22:37:34.174Z,50.58
2018-03-16T22:40:01.710Z,50.40
2018-03-16T22:42:29.229Z,50.14
2018-03-16T22:44:56.772Z,50.23
2018-03-16T22:47:24.312Z,50.43
2018-03-16T22:49:51.836Z,50.49
2018-03-16T22:52:19.379Z,50.29
2018-03-16T22:54:46.940Z,50.75
2018-03-16T22:57:14.514Z,50.47
2018-03-16T22:59:42.079Z,50.51
2018-03-16T23:02:09.605Z,50.18
2018-03-16T23:04:37.368Z,50.29
2018-03-16T23:07:04.934Z,50.24
2018-03-16T23:09:32.476Z,50.29
2018-03-16T23:11:59.999Z,50.05
2018-03-16T23:14:27.558Z,50.05
2018-03-16T23:16:55.087Z,50.15
2018-03-16T23:19:22.617Z,50.08
2018-03-16T23:21:50.198Z,50.43
2018-03-16T23:24:17.733Z,50.84
2018-03-16T23:26:45.330Z,49.92
2018-03-16T23:29:12.905Z,49.88
2018-03-16T23:31:40.415Z,49.60
2018-03-16T23:34:07.927Z,49.09
2018-03-16T23:36:35.519Z,49.33
2018-03-16T23:39:03.078Z,49.30
2018-03-16T23:41:30.700Z,49.56
2018-03-16T23:43:58.265Z,49.66
2018-03-16T23:46:25.766Z,49.12
2018-03-16T23:48:53.278Z,48.52
2018-03-16T23:51:20.839Z,48.69
2018-03-16T23:53:48.351Z,48.80
2018-03-16T23:56:15.857Z,48.77
2018-03-16T23:58:43.393Z,48.77
